createdAt,value
2019-01-21T00:00:40.675Z,16.37
2019-01-21T00:03:14.322Z,15.73
2019-01-21T00:05:39.573Z,16.00
2019-01-21T00:08:08.214Z,15.20
2019-01-21T00:10:36.680Z,15.00
2019-01-21T00:13:05.312Z,15.70
2019-01-21T00:15:53.197Z,15.97
2019-01-21T00:18:21.739Z,14.53
2019-01-21T00:20:50.224Z,15.93
2019-01-21T00:23:18.728Z,14.83
2019-01-21T00:25:47.203Z,15.40
2019-01-21T00:28:15.675Z,14.43
2019-01-21T00:30:44.161Z,14.30
2019-01-21T00:33:12.616Z,15.03
2019-01-21T00:35:41.110Z,14.37
2019-01-21T00:38:09.689Z,14.83
2019-01-21T00:40:38.160Z,15.50
2019-01-21T00:43:06.643Z,14.47
2019-01-21T00:45:35.212Z,15.03
2019-01-21T00:48:03.757Z,15.73
2019-01-21T00:50:32.240Z,15.20
2019-01-21T00:53:00.806Z,15.13
2019-01-21T00:55:29.298Z,15.63
2019-01-21T00:57:57.768Z,15.20
2019-01-21T01:00:27.409Z,15.30
2019-01-21T01:02:56.008Z,14.43
2019-01-21T01:05:24.629Z,14.07
2019-01-21T01:07:53.212Z,14.17
2019-01-21T01:10:21.748Z,14.23
2019-01-21T01:12:50.215Z,13.23
2019-01-21T01:15:18.784Z,13.80
2019-01-21T01:17:47.284Z,14.43
2019-01-21T01:20:18.537Z,14.03
2019-01-21T01:22:47.481Z,13.17
2019-01-21T01:25:16.020Z,13.10
2019-01-21T01:27:44.480Z,13.57
2019-01-21T01:30:15.415Z,14.30
2019-01-21T01:32:43.904Z,14.37
2019-01-21T01:35:14.304Z,13.87
2019-01-21T01:37:46.643Z,13.47
2019-01-21T01:40:16.855Z,11.93
2019-01-21T01:42:45.593Z,13.07
2019-01-21T01:45:17.268Z,12.50
2019-01-21T01:47:45.980Z,13.67
2019-01-21T01:50:14.956Z,13.23
2019-01-21T01:52:43.520Z,12.63
2019-01-21T01:55:12.136Z,13.10
2019-01-21T01:57:40.604Z,12.57
2019-01-21T02:00:14.818Z,12.97
2019-01-21T02:02:43.430Z,12.60
2019-01-21T02:05:12.104Z,12.80
2019-01-21T02:07:40.748Z,12.40
2019-01-21T02:10:11.827Z,12.87
2019-01-21T02:12:40.423Z,12.27
2019-01-21T02:15:11.777Z,13.00
2019-01-21T02:17:40.375Z,12.63
2019-01-21T02:20:14.421Z,12.60
2019-01-21T02:22:45.168Z,12.10
2019-01-21T02:25:14.415Z,12.58
2019-01-21T02:27:57.784Z,12.40
2019-01-21T02:30:29.331Z,13.67
2019-01-21T02:33:24.829Z,12.70
2019-01-21T02:35:56.377Z,12.63
2019-01-21T02:38:36.944Z,13.37
2019-01-21T02:41:24.146Z,13.20
2019-01-21T02:44:04.710Z,12.53
2019-01-21T02:46:39.126Z,12.63
2019-01-21T02:49:31.427Z,13.17
2019-01-21T02:52:22.307Z,12.20
2019-01-21T02:54:59.484Z,12.10
2019-01-21T02:57:33.800Z,12.20
2019-01-21T03:00:17.108Z,12.70
2019-01-21T03:02:51.457Z,12.57
2019-01-21T03:05:25.563Z,13.07
2019-01-21T03:08:30.199Z,12.37
2019-01-21T03:11:01.847Z,12.57
2019-01-21T03:13:45.435Z,13.00
2019-01-21T03:16:29.143Z,13.30
2019-01-21T03:19:18.831Z,12.27
2019-01-21T03:22:17.603Z,12.80
2019-01-21T03:25:14.879Z,12.80
2019-01-21T03:27:58.339Z,12.30
2019-01-21T03:30:36.005Z,12.23
2019-01-21T03:33:19.603Z,12.30
2019-01-21T03:35:53.695Z,13.00
2019-01-21T03:38:37.228Z,12.23
2019-01-21T03:41:15.106Z,12.13
2019-01-21T03:44:06.552Z,12.37
2019-01-21T03:46:50.151Z,12.60
2019-01-21T03:49:38.405Z,12.80
2019-01-21T03:52:30.880Z,12.63
2019-01-21T03:55:01.368Z,12.70
2019-01-21T03:57:38.869Z,13.50
2019-01-21T04:00:13.298Z,12.13
2019-01-21T04:03:11.008Z,13.20
2019-01-21T04:05:45.383Z,12.57
2019-01-21T04:08:31.869Z,12.03
2019-01-21T04:11:03.428Z,12.70
2019-01-21T04:13:37.945Z,13.13
2019-01-21T04:16:09.523Z,14.07
2019-01-21T04:18:56.265Z,12.87
2019-01-21T04:21:42.907Z,12.87
2019-01-21T04:24:14.832Z,13.37
2019-01-21T04:26:55.255Z,12.67
2019-01-21T04:29:38.692Z,13.00
2019-01-21T04:32:25.685Z,12.33
2019-01-21T04:35:16.977Z,12.53
2019-01-21T04:37:57.651Z,12.87
2019-01-21T04:40:32.257Z,12.57
2019-01-21T04:43:27.878Z,13.20
2019-01-21T04:46:23.480Z,13.37
2019-01-21T04:49:15.393Z,12.60
2019-01-21T04:52:01.897Z,12.60
2019-01-21T04:54:45.276Z,12.87
2019-01-21T04:57:16.836Z,13.17
2019-01-21T05:00:14.101Z,13.30
2019-01-21T05:02:54.937Z,13.50
2019-01-21T05:05:29.052Z,12.27
2019-01-21T05:08:29.236Z,13.80
2019-01-21T05:11:15.790Z,12.73
2019-01-21T05:14:07.072Z,12.70
2019-01-21T05:16:55.119Z,12.53
2019-01-21T05:19:44.556Z,13.27
2019-01-21T05:22:18.794Z,12.33
2019-01-21T05:25:22.009Z,12.87
2019-01-21T05:28:20.432Z,13.07
2019-01-21T05:30:52.004Z,11.80
2019-01-21T05:33:46.176Z,12.70
2019-01-21T05:36:23.565Z,13.50
2019-01-21T05:39:17.649Z,13.63
2019-01-21T05:42:20.738Z,12.97
2019-01-21T05:45:17.985Z,13.40
2019-01-21T05:48:01.574Z,13.07
2019-01-21T05:50:41.933Z,12.73
2019-01-21T05:53:25.191Z,13.00
2019-01-21T05:56:31.725Z,13.73
2019-01-21T05:59:38.177Z,13.67
2019-01-21T06:02:30.577Z,13.13
2019-01-21T06:05:17.019Z,12.57
2019-01-21T06:07:57.301Z,13.17
2019-01-21T06:10:31.499Z,12.53
2019-01-21T06:13:05.936Z,12.30
2019-01-21T06:15:42.899Z,12.83
2019-01-21T06:18:26.089Z,12.53
2019-01-21T06:21:15.654Z,12.90
2019-01-21T06:23:58.444Z,12.33
2019-01-21T06:26:47.456Z,12.60
2019-01-21T06:29:30.825Z,13.27
2019-01-21T06:32:17.522Z,12.87
2019-01-21T06:35:14.603Z,12.87
2019-01-21T06:38:07.071Z,12.70
2019-01-21T06:41:06.893Z,12.73
2019-01-21T06:43:41.272Z,13.23
2019-01-21T06:46:18.285Z,13.40
2019-01-21T06:48:55.564Z,11.17
2019-01-21T06:51:35.401Z,13.43
2019-01-21T06:54:28.211Z,13.27
2019-01-21T06:57:14.804Z,13.97
2019-01-21T07:00:05.844Z,13.63
2019-01-21T07:02:42.881Z,12.67
2019-01-21T07:05:17.244Z,13.97
2019-01-21T07:08:08.311Z,13.33
2019-01-21T07:10:48.655Z,13.90
2019-01-21T07:13:20.215Z,14.00
2019-01-21T07:16:09.625Z,14.13
2019-01-21T07:19:00.412Z,14.33
2019-01-21T07:21:40.971Z,14.47
2019-01-21T07:24:21.641Z,14.23
2019-01-21T07:27:02.388Z,13.83
2019-01-21T07:29:40.257Z,13.67
2019-01-21T07:32:20.740Z,14.13
2019-01-21T07:35:01.400Z,13.73
2019-01-21T07:37:32.953Z,13.77
2019-01-21T07:40:28.426Z,13.53
2019-01-21T07:43:17.765Z,12.97
2019-01-21T07:45:58.072Z,13.77
2019-01-21T07:48:53.649Z,14.00
2019-01-21T07:51:37.034Z,13.83
2019-01-21T07:54:19.732Z,14.47
2019-01-21T07:56:54.072Z,14.03
2019-01-21T07:59:52.940Z,13.53
2019-01-21T08:02:39.334Z,14.07
2019-01-21T08:05:36.508Z,14.60
2019-01-21T08:08:08.111Z,14.37
2019-01-21T08:10:51.616Z,14.50
2019-01-21T08:13:35.259Z,14.47
2019-01-21T08:16:15.580Z,14.07
2019-01-21T08:18:50.188Z,15.10
2019-01-21T08:21:33.551Z,15.60
2019-01-21T08:24:10.998Z,15.10
2019-01-21T08:27:02.127Z,14.73
2019-01-21T08:29:33.747Z,15.13
2019-01-21T08:32:05.283Z,14.77
2019-01-21T08:34:48.883Z,14.70
2019-01-21T08:37:44.599Z,14.90
2019-01-21T08:40:16.193Z,15.53
2019-01-21T08:42:53.697Z,15.53
2019-01-21T08:45:36.618Z,15.77
2019-01-21T08:48:08.180Z,15.93
2019-01-21T08:50:55.097Z,15.63
2019-01-21T08:53:29.287Z,16.10
2019-01-21T08:56:03.509Z,16.23
2019-01-21T08:58:44.220Z,15.67
2019-01-21T09:01:21.467Z,15.37
2019-01-21T09:04:07.575Z,17.80
2019-01-21T09:07:00.686Z,17.30
2019-01-21T09:09:34.924Z,16.23
2019-01-21T09:12:15.545Z,16.53
2019-01-21T09:15:04.917Z,16.10
2019-01-21T09:17:42.173Z,16.40
2019-01-21T09:20:16.548Z,16.80
2019-01-21T09:22:50.950Z,16.13
2019-01-21T09:25:25.092Z,18.07
2019-01-21T09:28:07.988Z,16.20
2019-01-21T09:30:48.251Z,16.27
2019-01-21T09:33:26.416Z,16.50
2019-01-21T09:36:13.000Z,17.27
2019-01-21T09:38:53.204Z,18.03
2019-01-21T09:41:45.806Z,18.07
2019-01-21T09:44:17.368Z,18.70
2019-01-21T09:46:44.821Z,19.43
2019-01-21T09:49:12.219Z,18.73
2019-01-21T09:51:43.059Z,18.90
2019-01-21T09:54:12.447Z,17.90
2019-01-21T09:56:42.037Z,18.77
2019-01-21T09:59:10.703Z,19.17
2019-01-21T10:01:39.303Z,18.43
2019-01-21T10:04:08.315Z,18.93
2019-01-21T10:06:42.343Z,19.27
2019-01-21T10:09:33.188Z,20.13
2019-01-21T10:12:13.337Z,18.53
2019-01-21T10:14:53.673Z,18.37
2019-01-21T10:17:34.403Z,18.87
2019-01-21T10:20:24.291Z,19.03
2019-01-21T10:23:14.923Z,18.67
2019-01-21T10:26:07.023Z,18.00
2019-01-21T10:28:54.890Z,16.53
2019-01-21T10:31:45.629Z,19.53
2019-01-21T10:34:33.533Z,19.20
2019-01-21T10:37:24.647Z,17.70
2019-01-21T10:40:23.375Z,16.77
2019-01-21T10:43:14.559Z,17.17
2019-01-21T10:45:46.115Z,18.67
2019-01-21T10:48:23.553Z,19.73
2019-01-21T10:51:03.864Z,19.77
2019-01-21T10:53:35.401Z,19.53
2019-01-21T10:56:24.665Z,17.77
2019-01-21T10:59:20.384Z,18.00
2019-01-21T11:02:03.809Z,19.83
2019-01-21T11:04:35.344Z,20.03
2019-01-21T11:07:09.572Z,19.67
2019-01-21T11:09:41.188Z,19.20
2019-01-21T11:12:18.577Z,19.37
2019-01-21T11:14:50.194Z,18.67
2019-01-21T11:17:52.183Z,18.80
2019-01-21T11:20:38.529Z,18.07
2019-01-21T11:23:10.108Z,18.90
2019-01-21T11:26:14.975Z,16.90
2019-01-21T11:28:55.456Z,17.13
2019-01-21T11:31:36.033Z,17.87
2019-01-21T11:34:13.400Z,16.83
2019-01-21T11:36:47.540Z,18.07
2019-01-21T11:39:35.833Z,17.30
2019-01-21T11:42:23.940Z,17.93
2019-01-21T11:44:58.493Z,16.80
2019-01-21T11:47:30.036Z,17.47
2019-01-21T11:50:19.746Z,17.00
2019-01-21T11:52:57.161Z,15.80
2019-01-21T11:55:49.424Z,17.80
2019-01-21T11:58:29.732Z,16.30
2019-01-21T12:01:04.113Z,17.73
2019-01-21T12:03:53.617Z,16.60
2019-01-21T12:06:28.056Z,16.13
2019-01-21T12:09:08.560Z,15.70
2019-01-21T12:11:42.931Z,18.23
2019-01-21T12:14:17.090Z,16.80
2019-01-21T12:16:54.320Z,16.60
2019-01-21T12:19:44.164Z,16.57
2019-01-21T12:22:34.968Z,14.93
2019-01-21T12:25:24.776Z,16.70
2019-01-21T12:27:56.328Z,16.90
2019-01-21T12:30:30.669Z,16.77
2019-01-21T12:33:02.444Z,17.37
2019-01-21T12:35:36.953Z,15.07
2019-01-21T12:38:42.781Z,15.70
2019-01-21T12:41:47.549Z,16.60
2019-01-21T12:44:41.580Z,16.33
2019-01-21T12:47:27.809Z,15.20
2019-01-21T12:50:30.849Z,14.57
2019-01-21T12:53:04.914Z,16.33
2019-01-21T12:55:39.120Z,15.13
2019-01-21T12:58:16.908Z,14.27
2019-01-21T13:01:04.772Z,14.93
2019-01-21T13:03:47.918Z,16.33
2019-01-21T13:06:43.424Z,15.93
2019-01-21T13:09:14.984Z,16.13
2019-01-21T13:11:52.655Z,16.03
2019-01-21T13:14:39.041Z,12.03
2019-01-21T13:17:10.604Z,15.40
2019-01-21T13:19:58.569Z,14.43
2019-01-21T13:22:32.836Z,16.43
2019-01-21T13:25:33.971Z,16.63
2019-01-21T13:28:41.961Z,16.20
2019-01-21T13:31:22.354Z,14.57
2019-01-21T13:34:10.421Z,14.83
2019-01-21T13:37:00.045Z,15.90
2019-01-21T13:39:43.869Z,15.27
2019-01-21T13:42:15.432Z,14.00
2019-01-21T13:44:58.850Z,14.07
2019-01-21T13:47:48.565Z,15.60
2019-01-21T13:50:37.055Z,14.77
2019-01-21T13:53:22.058Z,14.50
2019-01-21T13:56:11.916Z,15.27
2019-01-21T13:59:12.278Z,14.90
2019-01-21T14:01:49.927Z,16.17
2019-01-21T14:04:36.608Z,16.07
2019-01-21T14:07:23.711Z,15.83
2019-01-21T14:10:04.162Z,15.90
2019-01-21T14:12:50.162Z,16.67
2019-01-21T14:15:45.198Z,17.33
2019-01-21T14:18:22.480Z,16.10
2019-01-21T14:21:08.906Z,17.63
2019-01-21T14:24:07.688Z,16.43
2019-01-21T14:26:51.094Z,15.83
2019-01-21T14:29:28.201Z,15.07
2019-01-21T14:32:11.918Z,13.97
2019-01-21T14:34:49.544Z,14.43
2019-01-21T14:37:42.331Z,13.27
2019-01-21T14:40:31.852Z,12.87
2019-01-21T14:43:13.525Z,13.07
2019-01-21T14:45:53.266Z,13.57
2019-01-21T14:48:33.901Z,12.87
2019-01-21T14:51:20.553Z,12.43
2019-01-21T14:53:52.222Z,12.97
2019-01-21T14:56:41.861Z,13.43
2019-01-21T14:59:13.554Z,13.20
2019-01-21T15:01:47.838Z,13.93
2019-01-21T15:04:25.364Z,12.97
2019-01-21T15:06:59.874Z,13.33
2019-01-21T15:09:37.161Z,14.43
2019-01-21T15:12:28.357Z,13.10
2019-01-21T15:15:30.238Z,13.50
2019-01-21T15:18:21.199Z,12.67
2019-01-21T15:21:12.611Z,13.63
2019-01-21T15:23:53.089Z,14.13
2019-01-21T15:26:36.884Z,13.93
2019-01-21T15:29:17.726Z,14.07
2019-01-21T15:31:52.295Z,13.23
2019-01-21T15:34:35.665Z,13.97
2019-01-21T15:37:13.324Z,14.40
2019-01-21T15:40:01.598Z,14.63
2019-01-21T15:42:33.270Z,13.57
2019-01-21T15:45:38.447Z,14.43
2019-01-21T15:48:31.041Z,14.27
2019-01-21T15:51:20.361Z,13.70
2019-01-21T15:54:08.235Z,14.00
2019-01-21T15:56:51.101Z,14.17
2019-01-21T15:59:34.736Z,13.67
2019-01-21T16:02:06.357Z,13.77
2019-01-21T16:04:37.919Z,14.03
2019-01-21T16:07:24.477Z,14.47
2019-01-21T16:10:01.715Z,14.10
2019-01-21T16:12:50.675Z,14.77
2019-01-21T16:15:37.004Z,14.07
2019-01-21T16:18:08.619Z,15.40
2019-01-21T16:20:40.150Z,15.07
2019-01-21T16:23:37.481Z,12.93
2019-01-21T16:26:06.200Z,15.30
2019-01-21T16:28:43.344Z,15.30
2019-01-21T16:31:17.464Z,17.87
2019-01-21T16:34:19.213Z,20.80
2019-01-21T16:37:02.652Z,17.40
2019-01-21T16:39:46.336Z,19.97
2019-01-21T16:42:13.834Z,30.23
2019-01-21T16:44:44.409Z,31.53
2019-01-21T16:47:13.013Z,29.00
2019-01-21T16:49:41.564Z,25.77
2019-01-21T16:52:10.153Z,24.47
2019-01-21T16:54:38.653Z,24.83
2019-01-21T16:57:07.183Z,21.60
2019-01-21T16:59:35.669Z,18.17
2019-01-21T17:02:04.404Z,16.17
2019-01-21T17:04:32.946Z,15.30
2019-01-21T17:07:01.654Z,15.73
2019-01-21T17:09:30.239Z,16.03
2019-01-21T17:11:58.888Z,15.73
2019-01-21T17:14:27.551Z,14.97
2019-01-21T17:16:56.164Z,17.33
2019-01-21T17:19:24.713Z,16.50
2019-01-21T17:21:53.172Z,16.90
2019-01-21T17:24:21.642Z,17.40
2019-01-21T17:26:50.298Z,15.23
2019-01-21T17:29:18.862Z,16.40
2019-01-21T17:31:47.466Z,19.23
2019-01-21T17:34:16.651Z,18.75
2019-01-21T17:36:45.108Z,22.20
2019-01-21T17:39:13.572Z,17.63
2019-01-21T17:41:42.049Z,16.47
2019-01-21T17:44:10.598Z,15.83
2019-01-21T17:46:39.043Z,16.67
2019-01-21T17:49:07.600Z,18.83
2019-01-21T17:51:36.056Z,17.07
2019-01-21T17:54:05.260Z,17.37
2019-01-21T17:56:34.204Z,16.57
2019-01-21T17:59:02.666Z,17.10
2019-01-21T18:01:31.219Z,17.10
2019-01-21T18:03:59.698Z,18.40
2019-01-21T18:06:28.184Z,19.53
2019-01-21T18:08:56.645Z,18.97
2019-01-21T18:11:25.187Z,19.50
2019-01-21T18:13:53.729Z,17.90
2019-01-21T18:16:22.252Z,18.67
2019-01-21T18:18:50.753Z,19.37
2019-01-21T18:21:19.226Z,20.90
2019-01-21T18:23:47.700Z,21.53
2019-01-21T18:26:16.189Z,20.17
2019-01-21T18:28:44.677Z,19.53
2019-01-21T18:31:13.232Z,20.47
2019-01-21T18:33:41.800Z,19.77
2019-01-21T18:36:10.398Z,19.63
2019-01-21T18:38:38.924Z,18.40
2019-01-21T18:41:07.561Z,18.93
2019-01-21T18:43:36.054Z,22.17
2019-01-21T18:46:04.660Z,23.47
2019-01-21T18:48:33.121Z,21.73
2019-01-21T18:51:03.185Z,20.70
2019-01-21T18:53:31.856Z,20.47
2019-01-21T18:56:00.612Z,19.63
2019-01-21T18:58:29.099Z,18.80
2019-01-21T19:00:57.564Z,19.43
2019-01-21T19:03:26.040Z,20.10
2019-01-21T19:05:54.537Z,20.30
2019-01-21T19:08:23.010Z,19.90
2019-01-21T19:10:53.013Z,20.60
2019-01-21T19:13:21.500Z,19.63
2019-01-21T19:15:50.108Z,20.63
2019-01-21T19:18:18.586Z,19.93
2019-01-21T19:20:47.127Z,19.40
2019-01-21T19:23:15.672Z,19.87
2019-01-21T19:25:44.132Z,20.00
2019-01-21T19:28:13.563Z,19.30
2019-01-21T19:30:42.108Z,19.13
2019-01-21T19:33:10.574Z,20.33
2019-01-21T19:35:39.127Z,19.53
2019-01-21T19:38:07.615Z,20.70
2019-01-21T19:40:36.160Z,19.97
2019-01-21T19:43:04.688Z,19.47
2019-01-21T19:45:33.187Z,20.60
2019-01-21T19:48:01.743Z,20.27
2019-01-21T19:50:30.221Z,21.20
2019-01-21T19:52:58.683Z,21.23
2019-01-21T19:55:33.184Z,20.13
2019-01-21T19:58:01.667Z,19.67
2019-01-21T20:00:30.188Z,21.03
2019-01-21T20:02:58.684Z,20.47
2019-01-21T20:05:27.200Z,20.73
2019-01-21T20:07:55.797Z,22.17
2019-01-21T20:10:25.036Z,21.00
2019-01-21T20:12:53.568Z,21.63
2019-01-21T20:15:22.303Z,21.57
2019-01-21T20:17:50.935Z,20.17
2019-01-21T20:20:28.839Z,21.00
2019-01-21T20:22:57.850Z,20.60
2019-01-21T20:25:26.708Z,19.57
2019-01-21T20:27:58.425Z,20.47
2019-01-21T20:30:26.904Z,21.40
2019-01-21T20:32:55.465Z,21.43
2019-01-21T20:35:24.001Z,20.63
2019-01-21T20:37:52.745Z,22.07
2019-01-21T20:40:28.729Z,21.10
2019-01-21T20:42:57.393Z,20.67
2019-01-21T20:45:27.530Z,19.23
2019-01-21T20:47:56.075Z,21.23
2019-01-21T20:50:27.595Z,21.00
2019-01-21T20:52:56.301Z,20.60
2019-01-21T20:55:24.997Z,22.03
2019-01-21T20:57:53.487Z,22.10
2019-01-21T21:00:24.138Z,20.80
2019-01-21T21:02:54.016Z,23.30
2019-01-21T21:05:22.647Z,22.23
2019-01-21T21:07:51.253Z,21.47
2019-01-21T21:10:19.944Z,22.47
2019-01-21T21:12:48.490Z,21.53
2019-01-21T21:15:22.594Z,21.07
2019-01-21T21:17:51.142Z,21.20
2019-01-21T21:20:19.711Z,22.37
2019-01-21T21:22:48.263Z,21.80
2019-01-21T21:25:18.890Z,21.75
2019-01-21T21:27:47.522Z,21.20
2019-01-21T21:30:28.220Z,22.77
2019-01-21T21:32:57.001Z,22.77
2019-01-21T21:35:25.764Z,22.10
2019-01-21T21:37:54.513Z,22.30
2019-01-21T21:40:24.082Z,22.73
2019-01-21T21:42:52.699Z,22.73
2019-01-21T21:45:22.727Z,22.53
2019-01-21T21:47:51.716Z,23.60
2019-01-21T21:50:25.889Z,22.73
2019-01-21T21:52:54.512Z,22.97
2019-01-21T21:55:23.139Z,21.97
2019-01-21T21:57:51.792Z,22.23
2019-01-21T22:00:26.227Z,23.17
2019-01-21T22:02:54.812Z,23.17
2019-01-21T22:05:23.565Z,22.67
2019-01-21T22:07:52.172Z,22.50
2019-01-21T22:10:23.724Z,22.50
2019-01-21T22:12:52.849Z,22.23
2019-01-21T22:15:23.189Z,21.97
2019-01-21T22:17:51.804Z,22.87
2019-01-21T22:20:22.204Z,22.20
2019-01-21T22:22:50.977Z,22.80
2019-01-21T22:25:20.084Z,21.53
2019-01-21T22:27:48.718Z,21.60
2019-01-21T22:30:22.900Z,21.67
2019-01-21T22:32:51.512Z,22.83
2019-01-21T22:35:20.072Z,22.13
2019-01-21T22:37:48.730Z,21.97
2019-01-21T22:40:19.532Z,22.48
2019-01-21T22:42:48.216Z,23.33
2019-01-21T22:45:19.417Z,21.73
2019-01-21T22:47:47.881Z,22.03
2019-01-21T22:50:18.256Z,19.63
2019-01-21T22:52:46.789Z,22.97
2019-01-21T22:55:16.602Z,24.13
2019-01-21T22:57:45.302Z,22.67
2019-01-21T23:00:22.716Z,22.77
2019-01-21T23:02:51.216Z,22.47
2019-01-21T23:05:19.783Z,23.00
2019-01-21T23:07:48.443Z,23.20
2019-01-21T23:10:17.422Z,23.73
2019-01-21T23:12:45.980Z,22.47
2019-01-21T23:15:14.520Z,23.53
2019-01-21T23:17:43.008Z,23.50
2019-01-21T23:20:12.093Z,23.50
2019-01-21T23:22:40.653Z,23.50
2019-01-21T23:25:09.601Z,25.07
2019-01-21T23:27:38.741Z,23.80
2019-01-21T23:30:16.520Z,23.17
2019-01-21T23:32:45.124Z,23.77
2019-01-21T23:35:13.936Z,22.83
2019-01-21T23:37:42.539Z,22.13
2019-01-21T23:40:12.304Z,24.20
2019-01-21T23:42:40.853Z,24.50
2019-01-21T23:45:11.025Z,24.83
2019-01-21T23:47:39.579Z,22.87
2019-01-21T23:50:13.943Z,24.40
2019-01-21T23:52:42.836Z,24.83
2019-01-21T23:55:13.313Z,24.03
2019-01-21T23:57:41.970Z,24.07
